Time;durP1;ratioP1;P1;durP2;ratioP2;P2;SDS_P1;SDS_P2;PMS_P1;PMS_P2;Temp;Humidity;BMP_temperature;BMP_pressure;BME280_temperature;BME280_humidity;BME280_pressure;Samples;Min_cycle;Max_cycle;Signal;HPM_P1;HPM_P2
2021/12/20 00:02:41;;;;;;;16.50;4.50;;;6.80;99.90;;;;;;2129204;67;20324;-70
2021/12/20 00:05:23;;;;;;;16.73;3.58;;;6.80;99.90;;;;;;2141587;66;20739;-71
2021/12/20 00:08:08;;;;;;;20.38;5.05;;;6.80;99.90;;;;;;2147666;66;20294;-69
2021/12/20 00:10:49;;;;;;;15.73;4.43;;;6.80;99.90;;;;;;2142902;66;20774;-69
2021/12/20 00:13:31;;;;;;;14.38;3.63;;;7.10;99.90;;;;;;2158353;66;20172;-69
2021/12/20 00:16:13;;;;;;;18.90;4.05;;;6.70;99.90;;;;;;2145009;66;20375;-69
2021/12/20 00:18:55;;;;;;;17.70;5.22;;;6.70;99.90;;;;;;2122497;67;20309;-69
2021/12/20 00:21:37;;;;;;;21.63;4.28;;;6.60;99.90;;;;;;2118507;67;20165;-70
2021/12/20 00:24:22;;;;;;;25.50;5.55;;;6.60;99.90;;;;;;2119092;67;20165;-69
2021/12/20 00:27:07;;;;;;;21.45;4.75;;;6.60;99.90;;;;;;2119074;67;20292;-68
2021/12/20 00:29:49;;;;;;;19.55;5.15;;;6.50;99.90;;;;;;2117702;67;20200;-69
2021/12/20 00:32:33;;;;;;;14.77;4.78;;;6.50;99.90;;;;;;2118296;67;20330;-68
2021/12/20 00:35:19;;;;;;;21.58;4.68;;;6.50;99.90;;;;;;2101697;67;20210;-70
2021/12/20 00:41:01;;;;;;;19.55;4.60;;;6.50;99.90;;;;;;2104134;67;20201;-70
2021/12/20 00:43:42;;;;;;;16.02;4.28;;;7.50;99.90;;;;;;2091469;68;20231;-69
2021/12/20 00:46:24;;;;;;;12.65;4.55;;;6.50;99.90;;;;;;2099176;67;20472;-70
2021/12/20 00:49:08;;;;;;;20.70;5.30;;;6.50;99.90;;;;;;2111267;67;21196;-69
2021/12/20 00:51:52;;;;;;;15.15;3.22;;;6.50;99.90;;;;;;2118809;67;20218;-69
2021/12/20 00:54:34;;;;;;;19.88;3.90;;;6.50;99.90;;;;;;2116275;67;20243;-70
2021/12/20 00:57:16;;;;;;;14.73;4.07;;;6.50;99.90;;;;;;2123500;67;20274;-69
2021/12/20 00:59:58;;;;;;;11.55;2.80;;;6.50;99.90;;;;;;2110017;67;20763;-70
2021/12/20 01:02:39;;;;;;;10.98;3.42;;;6.50;99.90;;;;;;2103337;67;20271;-69
2021/12/20 01:05:22;;;;;;;18.80;3.65;;;6.50;99.90;;;;;;2103123;68;20307;-69
2021/12/20 01:08:06;;;;;;;10.45;3.20;;;6.40;99.90;;;;;;2103956;67;20312;-69
2021/12/20 01:10:52;;;;;;;11.75;2.47;;;6.40;99.90;;;;;;2117568;67;20180;-70
2021/12/20 01:13:40;;;;;;;;;;;6.40;99.90;;;;;;2124923;67;20197;-70
2021/12/20 01:16:31;;;;;;;7.53;2.28;;;6.40;99.90;;;;;;2125521;67;20242;-69
2021/12/20 01:19:17;;;;;;;8.18;2.20;;;6.40;99.90;;;;;;2131947;67;20192;-70
2021/12/20 01:22:01;;;;;;;11.00;2.78;;;6.30;99.90;;;;;;2130670;67;20179;-69
2021/12/20 01:24:43;;;;;;;9.20;2.42;;;6.40;99.90;;;;;;2130798;67;20426;-69
2021/12/20 01:27:26;;;;;;;7.03;2.00;;;6.30;99.90;;;;;;2131659;67;20461;-69
2021/12/20 01:30:13;;;;;;;10.75;2.50;;;6.30;99.90;;;;;;2138666;66;20457;-69
2021/12/20 01:32:56;;;;;;;9.00;2.10;;;6.30;99.90;;;;;;2140520;66;20233;-67
2021/12/20 01:35:39;;;;;;;11.57;2.17;;;6.30;99.90;;;;;;2131925;66;20303;-69
2021/12/20 01:38:21;;;;;;;10.27;2.35;;;6.30;99.90;;;;;;2128084;67;20188;-69
2021/12/20 01:41:03;;;;;;;9.93;2.53;;;6.30;99.90;;;;;;2124873;67;20491;-69
2021/12/20 01:43:45;;;;;;;10.40;3.35;;;6.40;99.90;;;;;;2131324;67;20344;-69
2021/12/20 01:46:28;;;;;;;8.07;1.92;;;6.40;99.90;;;;;;2117200;67;20205;-70
2021/12/20 01:49:15;;;;;;;7.13;1.60;;;6.40;99.90;;;;;;2119051;67;20714;-70
2021/12/20 01:52:04;;;;;;;5.93;1.83;;;6.50;99.90;;;;;;2126272;67;20235;-69
2021/12/20 01:54:53;;;;;;;8.50;2.17;;;6.50;99.90;;;;;;2137774;66;20915;-68
2021/12/20 01:57:37;;;;;;;11.93;2.00;;;6.40;99.90;;;;;;2146486;66;20190;-69
2021/12/20 02:00:27;;;;;;;15.07;2.15;;;6.40;99.90;;;;;;2137316;66;20586;-70
2021/12/20 02:03:10;;;;;;;13.00;2.17;;;6.40;99.90;;;;;;2146065;66;20178;-69
2021/12/20 02:05:56;;;;;;;10.27;2.53;;;6.40;99.90;;;;;;2147045;66;20315;-69
2021/12/20 02:08:37;;;;;;;;;;;6.40;99.90;;;;;;2153747;66;20353;-69
2021/12/20 02:11:20;;;;;;;6.80;2.20;;;6.40;99.90;;;;;;2147681;66;20183;-70
2021/12/20 02:14:02;;;;;;;10.68;2.63;;;6.40;99.90;;;;;;2138443;66;20214;-70
2021/12/20 02:16:46;;;;;;;9.68;2.15;;;6.40;99.90;;;;;;2131815;67;20195;-69
2021/12/20 02:19:28;;;;;;;7.63;2.25;;;6.40;99.90;;;;;;2128443;67;20533;-69
2021/12/20 02:22:10;;;;;;;9.60;2.55;;;6.40;99.90;;;;;;2130889;67;20254;-69
2021/12/20 02:24:51;;;;;;;9.93;2.55;;;6.40;99.90;;;;;;2099329;68;20336;-69
2021/12/20 02:27:35;;;;;;;9.60;2.75;;;6.40;99.90;;;;;;2111056;67;20774;-69
2021/12/20 02:39:02;;;;;;;12.93;2.58;;;6.30;99.90;;;;;;2106479;67;20177;-69
2021/12/20 02:41:47;;;;;;;13.65;2.85;;;6.30;99.90;;;;;;2123405;67;20335;-69
2021/12/20 02:44:29;;;;;;;10.32;2.78;;;6.30;99.90;;;;;;2124589;67;20369;-69
2021/12/20 02:47:16;;;;;;;11.48;2.20;;;6.30;99.90;;;;;;2118345;67;20189;-70
2021/12/20 02:50:00;;;;;;;12.75;2.38;;;6.20;99.90;;;;;;2106686;67;20336;-69
2021/12/20 02:52:46;;;;;;;9.65;2.90;;;6.10;99.90;;;;;;2104763;67;20265;-69
2021/12/20 02:55:32;;;;;;;10.77;2.45;;;6.10;99.90;;;;;;2127727;67;20352;-69
2021/12/20 02:58:17;;;;;;;;;;;6.10;99.90;;;;;;2134830;66;20290;-69
2021/12/20 03:01:00;;;;;;;7.38;1.98;;;6.40;99.90;;;;;;2136568;66;20544;-69
2021/12/20 03:03:44;;;;;;;;;;;6.00;99.90;;;;;;2143619;66;20797;-69
2021/12/20 03:06:30;;;;;;;12.85;3.05;;;6.10;99.90;;;;;;2150460;66;20067;-69
2021/12/20 03:09:16;;;;;;;8.00;2.78;;;6.00;99.90;;;;;;2141055;66;20329;-70
2021/12/20 03:12:01;;;;;;;9.15;3.05;;;6.00;99.90;;;;;;2141648;66;20384;-69
2021/12/20 03:14:48;;;;;;;11.57;2.70;;;6.00;99.90;;;;;;2143327;66;20162;-69
2021/12/20 03:17:30;;;;;;;8.68;2.88;;;6.00;99.90;;;;;;2143828;66;20688;-69
2021/12/20 03:20:14;;;;;;;7.13;2.20;;;5.90;99.90;;;;;;2137536;67;20414;-69
2021/12/20 03:22:56;;;;;;;11.48;3.60;;;5.90;99.90;;;;;;2141265;66;20432;-69
2021/12/20 03:25:58;;;;;;;12.45;3.35;;;5.90;99.90;;;;;;2118396;67;20702;-69
2021/12/20 03:28:39;;;;;;;10.23;2.63;;;5.90;99.90;;;;;;2107780;67;20181;-69
2021/12/20 03:31:21;;;;;;;11.35;2.67;;;5.90;99.90;;;;;;2114814;67;20354;-69
2021/12/20 03:34:05;;;;;;;12.20;2.35;;;5.80;99.90;;;;;;2113423;67;20217;-68
2021/12/20 03:36:47;;;;;;;8.93;2.10;;;5.80;99.90;;;;;;2098727;68;20277;-70
2021/12/20 03:39:30;;;;;;;9.23;2.35;;;5.80;99.90;;;;;;2110194;67;20849;-70
2021/12/20 03:42:12;;;;;;;8.90;2.60;;;5.70;99.90;;;;;;2115240;67;20281;-70
2021/12/20 03:44:55;;;;;;;11.60;3.03;;;5.60;99.90;;;;;;2102158;67;20251;-69
2021/12/20 03:47:37;;;;;;;11.00;3.20;;;5.60;99.90;;;;;;2108381;67;20329;-69
2021/12/20 03:50:21;;;;;;;15.00;2.55;;;5.40;99.90;;;;;;2101691;67;20651;-69
2021/12/20 03:53:06;;;;;;;8.07;2.55;;;5.40;99.90;;;;;;2103164;67;20331;-70
2021/12/20 03:55:51;;;;;;;11.27;3.78;;;5.40;99.90;;;;;;2106814;67;20227;-68
2021/12/20 03:58:34;;;;;;;7.60;2.15;;;5.30;99.90;;;;;;2110764;67;20287;-69
2021/12/20 04:01:20;;;;;;;10.65;2.65;;;5.20;99.90;;;;;;2115862;67;20681;-68
2021/12/20 04:04:05;;;;;;;8.40;1.60;;;5.10;99.90;;;;;;2126382;67;20343;-69
2021/12/20 04:06:46;;;;;;;12.15;3.40;;;5.10;99.90;;;;;;2130664;67;20433;-70
2021/12/20 04:09:28;;;;;;;9.48;2.97;;;5.10;99.90;;;;;;2124515;67;20355;-69
2021/12/20 04:12:10;;;;;;;8.93;2.35;;;5.00;99.90;;;;;;2117293;67;20239;-70
2021/12/20 04:14:52;;;;;;;7.22;2.20;;;4.90;99.90;;;;;;2121475;67;20209;-70
2021/12/20 04:17:34;;;;;;;10.05;2.35;;;4.90;99.90;;;;;;2116267;67;20353;-70
2021/12/20 04:20:16;;;;;;;10.80;2.63;;;4.80;99.90;;;;;;2124454;67;20350;-69
2021/12/20 04:22:58;;;;;;;9.73;2.40;;;4.70;99.90;;;;;;2125345;67;20201;-69
2021/12/20 04:25:41;;;;;;;11.13;2.83;;;4.60;99.90;;;;;;2129786;67;20199;-70
2021/12/20 04:28:26;;;;;;;9.38;2.67;;;4.60;99.90;;;;;;2120365;67;20383;-69
2021/12/20 04:31:08;;;;;;;13.88;2.78;;;4.50;99.90;;;;;;2125053;67;20182;-69
2021/12/20 04:33:50;;;;;;;11.80;2.35;;;4.40;99.90;;;;;;2125991;67;20183;-69
2021/12/20 04:36:33;;;;;;;9.73;2.30;;;4.40;99.90;;;;;;2133988;67;20812;-69
2021/12/20 04:39:19;;;;;;;6.10;1.92;;;4.20;99.90;;;;;;2136019;67;20246;-69
2021/12/20 04:42:01;;;;;;;6.90;2.05;;;4.10;99.90;;;;;;2140372;66;20325;-68
2021/12/20 04:44:44;;;;;;;12.70;3.17;;;4.00;99.90;;;;;;2146170;66;20373;-69
2021/12/20 04:47:28;;;;;;;6.82;2.42;;;3.90;99.90;;;;;;2144405;66;20935;-69
2021/12/20 04:50:13;;;;;;;9.15;3.03;;;3.90;99.90;;;;;;2146067;66;20334;-69
2021/12/20 04:52:58;;;;;;;10.40;2.42;;;3.80;99.90;;;;;;2151084;66;20190;-70
2021/12/20 04:55:40;;;;;;;10.85;2.45;;;3.70;99.90;;;;;;2151270;66;20708;-69
2021/12/20 04:58:41;;;;;;;7.07;2.22;;;3.60;99.90;;;;;;2160560;66;20428;-69
2021/12/20 05:01:24;;;;;;;8.45;2.20;;;3.60;99.90;;;;;;2147129;66;20161;-69
2021/12/20 05:04:08;;;;;;;12.85;3.22;;;3.50;99.90;;;;;;2138273;66;20171;-69
2021/12/20 05:06:50;;;;;;;6.15;2.15;;;3.40;99.90;;;;;;2138018;66;20626;-69
2021/12/20 05:09:37;;;;;;;10.20;2.28;;;3.30;99.90;;;;;;2130747;67;20409;-69
2021/12/20 05:12:19;;;;;;;13.90;2.78;;;3.30;99.90;;;;;;2116795;67;20245;-69
2021/12/20 05:15:05;;;;;;;6.35;2.50;;;3.30;99.90;;;;;;2125654;67;20722;-70
2021/12/20 05:17:47;;;;;;;14.25;2.50;;;3.20;99.90;;;;;;2124217;67;20750;-70
2021/12/20 05:20:28;;;;;;;10.45;3.13;;;3.20;99.90;;;;;;2129004;67;20192;-69
2021/12/20 05:23:11;;;;;;;11.88;3.70;;;3.20;99.90;;;;;;2124828;67;20330;-70
2021/12/20 05:25:53;;;;;;;12.77;3.28;;;3.10;99.90;;;;;;2131660;67;20356;-70
2021/12/20 05:28:35;;;;;;;9.43;3.15;;;3.10;99.90;;;;;;2154159;66;20853;-69
2021/12/20 05:31:16;;;;;;;14.68;3.58;;;3.10;99.90;;;;;;2146821;66;20218;-69
2021/12/20 05:33:58;;;;;;;12.40;3.13;;;3.00;99.90;;;;;;2148649;66;20256;-69
2021/12/20 05:36:40;;;;;;;13.93;3.15;;;3.00;99.90;;;;;;2138913;67;20237;-69
2021/12/20 05:39:22;;;;;;;14.55;2.90;;;2.90;99.90;;;;;;2149979;66;20256;-70
2021/12/20 05:42:06;;;;;;;13.35;2.63;;;2.90;99.90;;;;;;2135805;67;21227;-70
2021/12/20 05:44:50;;;;;;;9.98;2.95;;;2.80;99.90;;;;;;2137739;66;20187;-70
2021/12/20 05:47:38;;;;;;;12.50;3.33;;;2.80;99.90;;;;;;2112531;67;20211;-70
2021/12/20 05:50:22;;;;;;;9.98;3.13;;;2.70;99.90;;;;;;2118934;67;20184;-70
2021/12/20 05:53:03;;;;;;;15.30;3.30;;;2.70;99.90;;;;;;2125913;67;20204;-69
2021/12/20 05:55:46;;;;;;;11.65;2.80;;;2.70;99.90;;;;;;2119063;67;20228;-69
2021/12/20 05:58:32;;;;;;;9.65;2.88;;;2.60;99.90;;;;;;2122119;67;20378;-70
2021/12/20 06:01:17;;;;;;;14.20;3.72;;;2.60;99.90;;;;;;2126208;67;20366;-70
2021/12/20 06:04:02;;;;;;;13.15;3.15;;;2.50;99.90;;;;;;2135185;67;20339;-70
2021/12/20 06:06:44;;;;;;;11.05;2.83;;;2.40;99.90;;;;;;2126369;67;20219;-69
2021/12/20 06:09:28;;;;;;;11.65;3.15;;;2.40;99.90;;;;;;2119609;67;20180;-69
2021/12/20 06:12:27;;;;;;;11.63;2.80;;;2.30;99.90;;;;;;2142890;66;20198;-70
2021/12/20 06:15:12;;;;;;;11.57;2.63;;;2.30;99.90;;;;;;2142425;66;20256;-69
2021/12/20 06:17:55;;;;;;;18.55;3.88;;;2.30;99.90;;;;;;2141531;66;20221;-70
2021/12/20 06:20:42;;;;;;;14.13;3.60;;;2.20;99.90;;;;;;2140384;66;20267;-69
2021/12/20 06:23:25;;;;;;;16.27;4.05;;;2.20;99.90;;;;;;2145650;66;20662;-69
2021/12/20 06:26:10;;;;;;;12.05;3.60;;;2.20;99.90;;;;;;2137000;67;20187;-68
2021/12/20 06:28:55;;;;;;;11.18;3.60;;;2.10;99.90;;;;;;2136517;66;20401;-70
2021/12/20 06:31:39;;;;;;;10.63;3.45;;;2.10;99.90;;;;;;2129985;67;20500;-68
2021/12/20 06:34:24;;;;;;;11.38;3.78;;;2.10;99.90;;;;;;2124973;67;20533;-69
2021/12/20 06:37:11;;;;;;;15.52;4.03;;;2.10;99.90;;;;;;2124527;67;20883;-70
2021/12/20 06:39:52;;;;;;;11.75;4.65;;;2.00;99.90;;;;;;2119176;67;20303;-70
2021/12/20 06:42:37;;;;;;;13.38;4.93;;;2.00;99.90;;;;;;2120892;67;20389;-69
2021/12/20 06:45:23;;;;;;;16.08;4.22;;;2.00;99.90;;;;;;2125298;67;20181;-69
2021/12/20 06:48:05;;;;;;;17.45;5.03;;;2.00;99.90;;;;;;2118090;67;20318;-68
2021/12/20 06:50:47;;;;;;;14.77;4.78;;;2.00;99.90;;;;;;2115831;67;20431;-69
2021/12/20 06:53:29;;;;;;;15.00;4.10;;;1.90;99.90;;;;;;2129964;67;20312;-69
2021/12/20 06:56:12;;;;;;;14.57;4.93;;;1.90;99.90;;;;;;2130019;67;20773;-69
2021/12/20 06:58:55;;;;;;;16.38;5.20;;;2.10;99.90;;;;;;2118032;67;20315;-69
2021/12/20 07:01:37;;;;;;;15.65;4.60;;;2.10;99.90;;;;;;2124568;67;20376;-69
2021/12/20 07:04:21;;;;;;;13.87;3.80;;;1.80;99.90;;;;;;2137863;67;20385;-67
2021/12/20 07:07:03;;;;;;;20.15;4.70;;;1.80;99.90;;;;;;2138782;66;20759;-68
2021/12/20 07:09:49;;;;;;;17.20;4.20;;;1.80;99.90;;;;;;2125351;67;20597;-68
2021/12/20 07:12:37;;;;;;;8.82;4.15;;;1.70;99.90;;;;;;2131403;67;20279;-66
2021/12/20 07:15:22;;;;;;;15.23;4.68;;;1.70;99.90;;;;;;2130284;67;20593;-68
2021/12/20 07:18:04;;;;;;;17.42;4.40;;;1.60;99.90;;;;;;2106403;67;20378;-67
2021/12/20 07:20:46;;;;;;;10.57;3.67;;;1.60;99.90;;;;;;2117132;67;20196;-67
2021/12/20 07:23:29;;;;;;;13.30;4.93;;;1.60;99.90;;;;;;2116528;67;20240;-77
2021/12/20 07:26:17;;;;;;;14.60;4.80;;;1.60;99.90;;;;;;2098047;68;20277;-69
2021/12/20 07:29:01;;;;;;;17.65;5.70;;;2.00;99.90;;;;;;2107096;67;20525;-70
2021/12/20 07:31:44;;;;;;;20.73;5.47;;;1.60;99.90;;;;;;2130741;67;20472;-71
2021/12/20 07:34:26;;;;;;;21.85;5.68;;;1.60;99.90;;;;;;2131991;67;20171;-69
2021/12/20 07:37:08;;;;;;;16.88;5.70;;;1.60;99.90;;;;;;2132965;67;20266;-68
2021/12/20 07:39:50;;;;;;;25.52;7.55;;;1.60;99.90;;;;;;2124594;67;20192;-68
2021/12/20 07:42:32;;;;;;;23.58;6.90;;;1.70;99.90;;;;;;2117009;67;20329;-67
2021/12/20 07:45:17;;;;;;;16.50;6.30;;;1.60;99.90;;;;;;2118042;67;20559;-69
2021/12/20 07:48:00;;;;;;;21.67;6.28;;;1.70;99.90;;;;;;2117978;67;20311;-71
2021/12/20 07:50:45;;;;;;;19.30;6.20;;;1.70;99.90;;;;;;2115925;67;20240;-70
2021/12/20 07:53:27;;;;;;;19.65;6.30;;;1.60;99.90;;;;;;2116502;67;20260;-71
2021/12/20 07:56:14;;;;;;;22.17;6.63;;;1.60;99.90;;;;;;2123198;67;20428;-72
2021/12/20 07:59:01;;;;;;;25.52;6.88;;;1.60;99.90;;;;;;2122793;67;20274;-74
2021/12/20 08:01:47;;;;;;;19.52;6.55;;;2.10;99.90;;;;;;2118383;67;20763;-72
2021/12/20 08:04:31;;;;;;;16.55;6.43;;;1.60;99.90;;;;;;2119001;67;20252;-71
2021/12/20 08:07:18;;;;;;;23.25;7.28;;;1.60;99.90;;;;;;2124989;67;20172;-73
2021/12/20 08:10:04;;;;;;;20.20;6.70;;;1.70;99.90;;;;;;2140502;66;20281;-72
2021/12/20 08:12:50;;;;;;;25.77;7.50;;;1.70;99.90;;;;;;2141061;66;20365;-69
2021/12/20 08:15:36;;;;;;;20.20;7.18;;;1.80;99.90;;;;;;2137410;66;20318;-69
2021/12/20 08:18:20;;;;;;;20.13;6.70;;;1.70;99.90;;;;;;2128424;67;20672;-69
2021/12/20 08:21:02;;;;;;;23.38;7.80;;;1.80;99.90;;;;;;2125367;67;20339;-72
2021/12/20 08:23:46;;;;;;;21.90;7.53;;;1.80;99.90;;;;;;2121074;67;20780;-67
2021/12/20 08:26:28;;;;;;;24.33;7.65;;;1.80;99.90;;;;;;2121480;67;20720;-76
2021/12/20 08:29:11;;;;;;;20.15;7.32;;;1.70;99.90;;;;;;2104538;67;20381;-72
2021/12/20 08:31:54;;;;;;;23.73;8.82;;;1.80;99.90;;;;;;2114117;67;20201;-73
2021/12/20 08:34:38;;;;;;;20.27;8.07;;;1.80;99.90;;;;;;2112596;67;20251;-70
2021/12/20 08:37:24;;;;;;;26.23;9.20;;;1.80;99.90;;;;;;2123504;67;20235;-73
2021/12/20 08:40:13;;;;;;;25.23;8.23;;;1.80;99.90;;;;;;2128392;67;20199;-75
2021/12/20 08:42:55;;;;;;;26.75;8.75;;;1.90;99.90;;;;;;2111882;67;20351;-73
2021/12/20 08:45:38;;;;;;;20.05;7.88;;;2.00;99.90;;;;;;2117291;67;20768;-71
2021/12/20 08:48:23;;;;;;;;;;;1.90;99.90;;;;;;2124019;67;20407;-71
2021/12/20 08:51:05;;;;;;;23.45;8.35;;;2.00;99.90;;;;;;2121065;67;20108;-70
2021/12/20 08:53:50;;;;;;;26.13;9.60;;;2.00;99.90;;;;;;2124200;67;20339;-68
2021/12/20 08:56:27;;;;;;;28.90;9.40;;;2.10;99.90;;;;;;2119209;67;20219;-69
2021/12/20 08:59:08;;;;;;;21.38;8.23;;;2.10;99.90;;;;;;2117483;67;20355;-70
2021/12/20 09:01:47;;;;;;;23.08;8.27;;;2.40;99.90;;;;;;2119375;67;20650;-72
2021/12/20 09:04:38;;;;;;;27.30;9.43;;;2.20;99.90;;;;;;2126094;67;20199;-71
2021/12/20 09:07:30;;;;;;;32.58;9.93;;;2.30;99.90;;;;;;2138931;66;20210;-70
2021/12/20 09:10:12;;;;;;;35.33;10.02;;;2.30;99.90;;;;;;2147641;66;20274;-71
2021/12/20 09:12:41;;;;;;;40.15;9.95;;;2.40;99.90;;;;;;2149260;66;20190;-70
2021/12/20 09:15:15;;;;;;;32.38;8.73;;;2.40;99.90;;;;;;2169094;65;20707;-72
2021/12/20 09:18:12;;;;;;;42.20;10.50;;;2.50;99.90;;;;;;2154035;66;20176;-70
2021/12/20 09:20:51;;;;;;;28.35;9.52;;;2.60;99.90;;;;;;2154462;66;20285;-71
2021/12/20 09:23:29;;;;;;;34.80;9.80;;;2.70;99.90;;;;;;2163122;65;20450;-70
2021/12/20 09:26:07;;;;;;;26.38;8.60;;;2.70;99.90;;;;;;2205958;64;20336;-69
2021/12/20 09:28:46;;;;;;;27.42;8.55;;;2.80;99.90;;;;;;2221724;64;20179;-71
2021/12/20 09:31:22;;;;;;;30.52;7.93;;;2.80;99.90;;;;;;2221848;64;20336;-69
2021/12/20 09:34:00;;;;;;;32.35;8.88;;;2.90;99.90;;;;;;2221692;64;21090;-70
2021/12/20 09:36:42;;;;;;;33.95;9.05;;;3.00;99.90;;;;;;2219355;64;20811;-73
2021/12/20 09:39:21;;;;;;;35.78;10.32;;;3.00;99.90;;;;;;2218957;64;20725;-70
2021/12/20 09:42:02;;;;;;;32.13;7.53;;;3.10;99.90;;;;;;2226519;64;20175;-69
2021/12/20 09:44:44;;;;;;;33.13;9.20;;;3.10;99.90;;;;;;2223445;64;20721;-69
2021/12/20 09:47:35;;;;;;;36.85;8.80;;;3.20;99.90;;;;;;2205991;65;20176;-70
2021/12/20 09:50:32;;;;;;;23.90;7.70;;;3.20;99.90;;;;;;2190723;65;20182;-69
2021/12/20 09:53:14;;;;;;;38.15;8.18;;;3.30;99.90;;;;;;2192551;65;20170;-69
2021/12/20 09:55:53;;;;;;;30.40;6.85;;;3.50;99.90;;;;;;2186403;65;20220;-69
2021/12/20 09:58:43;;;;;;;19.23;6.47;;;3.50;99.90;;;;;;2176736;65;20473;-69
2021/12/20 10:01:28;;;;;;;30.13;7.18;;;3.50;99.90;;;;;;2164323;65;20215;-70
2021/12/20 10:04:12;;;;;;;19.85;6.50;;;3.60;99.90;;;;;;2162246;66;20711;-69
2021/12/20 10:07:00;;;;;;;21.80;5.85;;;3.70;99.90;;;;;;2179868;65;20346;-68
2021/12/20 10:09:47;;;;;;;27.83;7.00;;;3.80;99.90;;;;;;2181646;65;20191;-68
2021/12/20 10:12:31;;;;;;;33.15;6.47;;;4.00;99.90;;;;;;2168045;66;20209;-69
2021/12/20 10:15:15;;;;;;;25.45;7.38;;;3.80;99.90;;;;;;2154029;66;20194;-69
2021/12/20 10:18:10;;;;;;;25.90;7.45;;;3.80;99.90;;;;;;2138876;66;20171;-69
2021/12/20 10:20:55;;;;;;;23.85;6.80;;;3.90;99.90;;;;;;2122525;67;20734;-71
2021/12/20 10:23:46;;;;;;;36.55;7.43;;;3.90;99.90;;;;;;2103751;68;20349;-70
2021/12/20 10:26:48;;;;;;;26.55;6.28;;;3.90;99.90;;;;;;2103604;68;20194;-71
2021/12/20 10:29:25;;;;;;;30.38;6.65;;;4.00;99.90;;;;;;2101343;67;20260;-68
2021/12/20 10:32:38;;;;;;;25.83;6.97;;;4.10;99.90;;;;;;2104720;67;20317;-69
2021/12/20 10:35:37;;;;;;;21.98;6.70;;;4.10;99.90;;;;;;2113394;67;20627;-69
2021/12/20 10:38:22;;;;;;;26.67;6.75;;;4.20;99.90;;;;;;2127558;67;20251;-68
2021/12/20 10:40:58;;;;;;;17.50;6.45;;;4.30;99.90;;;;;;2129220;67;20342;-69
2021/12/20 10:43:37;;;;;;;25.67;6.75;;;4.40;99.90;;;;;;2142202;66;20226;-69
2021/12/20 10:46:34;;;;;;;24.75;7.43;;;4.40;99.90;;;;;;2154462;65;20760;-68
2021/12/20 10:49:14;;;;;;;34.70;7.38;;;4.50;99.90;;;;;;2182796;65;20202;-69
2021/12/20 10:51:54;;;;;;;32.88;7.65;;;4.40;99.90;;;;;;2208992;64;20211;-69
2021/12/20 10:54:44;;;;;;;25.67;8.38;;;4.40;99.90;;;;;;2216264;64;20191;-69
2021/12/20 10:57:37;;;;;;;23.30;6.55;;;4.50;99.90;;;;;;2213624;64;20342;-68
2021/12/20 11:00:22;;;;;;;29.67;7.28;;;4.60;99.90;;;;;;2213118;64;20263;-68
2021/12/20 11:06:25;;;;;;;27.85;5.50;;;4.60;99.90;;;;;;2183391;65;20840;-72
2021/12/20 11:09:30;;;;;;;22.23;6.28;;;4.70;99.90;;;;;;2183156;65;20260;-70
2021/12/20 11:12:01;;;;;;;22.05;4.80;;;5.00;99.90;;;;;;2183904;65;20290;-71
2021/12/20 11:15:08;;;;;;;16.35;5.05;;;5.30;99.90;;;;;;2197591;65;20805;-71
2021/12/20 11:18:16;;;;;;;16.60;5.22;;;5.90;99.90;;;;;;2182412;65;20194;-70
2021/12/20 11:21:11;;;;;;;13.13;3.95;;;6.60;99.90;;;;;;2180954;65;20842;-69
2021/12/20 11:23:48;;;;;;;18.08;4.93;;;7.20;99.90;;;;;;2187066;65;20198;-70
2021/12/20 11:26:29;;;;;;;14.13;3.40;;;7.80;99.90;;;;;;2196534;65;20174;-70
2021/12/20 11:29:20;;;;;;;11.60;4.32;;;8.30;99.90;;;;;;2197537;65;20429;-69
2021/12/20 11:32:06;;;;;;;7.63;2.80;;;8.80;99.90;;;;;;2175751;65;20678;-72
2021/12/20 11:34:50;;;;;;;;;;;9.10;99.90;;;;;;2173611;65;20274;-72
2021/12/20 11:37:38;;;;;;;12.48;3.70;;;9.40;99.90;;;;;;2171409;65;20063;-71
2021/12/20 11:40:26;;;;;;;10.55;3.10;;;9.50;99.90;;;;;;2163333;66;20341;-70
2021/12/20 11:43:09;;;;;;;;;;;9.70;99.90;;;;;;2167689;66;20858;-74
2021/12/20 11:45:48;;;;;;;6.20;2.33;;;10.00;99.90;;;;;;2163983;66;20080;-70
2021/12/20 11:48:22;;;;;;;11.68;3.00;;;9.70;99.90;;;;;;2161630;66;20318;-74
2021/12/20 11:50:57;;;;;;;10.65;2.55;;;9.80;99.90;;;;;;2160063;66;20667;-71
2021/12/20 11:53:40;;;;;;;9.00;2.78;;;9.70;99.90;;;;;;2162163;66;20322;-70
2021/12/20 11:56:10;;;;;;;6.72;2.67;;;9.70;99.90;;;;;;2159302;66;20338;-71
2021/12/20 11:58:54;;;;;;;9.60;3.15;;;9.70;99.90;;;;;;2160115;66;20275;-70
2021/12/20 12:01:35;;;;;;;13.25;3.47;;;9.70;99.90;;;;;;2167295;66;20384;-70
2021/12/20 12:04:19;;;;;;;7.07;2.83;;;9.50;99.90;;;;;;2186482;65;20327;-70
2021/12/20 12:07:22;;;;;;;9.88;2.92;;;9.90;99.90;;;;;;2182473;65;20781;-69
2021/12/20 12:10:10;;;;;;;5.18;2.00;;;9.30;99.90;;;;;;2188569;65;21058;-69
2021/12/20 12:12:49;;;;;;;8.38;2.85;;;9.20;99.90;;;;;;2212518;64;20305;-71
2021/12/20 12:15:39;;;;;;;7.32;2.35;;;9.10;99.90;;;;;;2229077;64;20254;-72
2021/12/20 12:18:18;;;;;;;9.35;2.55;;;9.00;99.90;;;;;;2229420;64;20299;-70
2021/12/20 12:21:28;;;;;;;10.30;2.88;;;9.10;99.90;;;;;;2229415;64;20439;-71
2021/12/20 12:24:52;;;;;;;8.93;2.40;;;9.30;99.90;;;;;;2185044;65;20224;-70
2021/12/20 12:27:33;;;;;;;10.35;2.60;;;9.30;99.90;;;;;;2196100;65;20185;-70
2021/12/20 12:30:11;;;;;;;4.68;1.63;;;9.50;99.90;;;;;;2200908;64;20679;-70
2021/12/20 12:32:50;;;;;;;7.32;2.58;;;9.70;99.90;;;;;;2205045;64;20281;-70
2021/12/20 12:35:41;;;;;;;2.90;1.20;;;10.20;99.90;;;;;;2205506;65;20184;-72
2021/12/20 12:38:47;;;;;;;4.90;1.10;;;10.60;99.90;;;;;;2197366;65;20651;-70
2021/12/20 12:41:31;;;;;;;5.50;1.58;;;11.10;99.90;;;;;;2191558;65;20464;-71
2021/12/20 12:44:15;;;;;;;6.03;1.98;;;11.80;99.90;;;;;;2196503;65;20229;-71
2021/12/20 12:47:10;;;;;;;5.82;2.08;;;12.40;99.90;;;;;;2182220;65;20187;-71
2021/12/20 12:49:56;;;;;;;6.88;2.53;;;13.00;97.70;;;;;;2182641;65;20313;-70
2021/12/20 12:52:39;;;;;;;7.82;2.20;;;13.60;94.90;;;;;;2173683;65;20293;-71
2021/12/20 12:55:30;;;;;;;7.32;2.05;;;14.20;91.80;;;;;;2166179;65;20217;-70
2021/12/20 12:58:32;;;;;;;4.20;1.65;;;14.70;85.80;;;;;;2167072;65;20714;-70
2021/12/20 13:01:20;;;;;;;3.67;1.48;;;15.00;76.00;;;;;;2159737;66;20695;-71
2021/12/20 13:04:02;;;;;;;3.67;1.13;;;15.30;68.00;;;;;;2145303;66;20339;-71
2021/12/20 13:06:45;;;;;;;4.00;1.13;;;15.50;64.50;;;;;;2139918;66;20186;-70
2021/12/20 13:09:32;;;;;;;3.50;1.80;;;15.80;59.40;;;;;;2130653;67;20336;-70
2021/12/20 13:12:39;;;;;;;9.80;2.35;;;15.90;60.20;;;;;;2117051;67;20330;-71
2021/12/20 13:18:20;;;;;;;4.75;1.17;;;15.90;57.70;;;;;;2102533;67;20313;-70
2021/12/20 13:21:05;;;;;;;6.75;1.60;;;15.70;57.40;;;;;;2081098;68;20266;-69
2021/12/20 13:23:49;;;;;;;3.42;1.10;;;15.10;56.40;;;;;;2086333;68;20553;-70
2021/12/20 13:26:35;;;;;;;7.82;1.67;;;14.80;56.10;;;;;;2097226;68;20237;-70
2021/12/20 13:29:19;;;;;;;;;;;14.50;55.00;;;;;;2102859;67;20261;-70
2021/12/20 13:32:10;;;;;;;6.53;1.95;;;14.30;57.20;;;;;;2092081;68;20206;-70
2021/12/20 13:34:52;;;;;;;3.80;1.42;;;14.10;55.30;;;;;;2082414;68;20351;-71
2021/12/20 13:37:39;;;;;;;4.47;1.30;;;14.00;54.70;;;;;;2086018;68;20410;-71
2021/12/20 13:40:21;;;;;;;4.85;1.13;;;13.60;55.00;;;;;;2095883;68;20213;-69
2021/12/20 13:43:10;;;;;;;10.55;2.53;;;13.00;53.90;;;;;;2097751;68;20340;-72
2021/12/20 13:46:41;;;;;;;3.00;1.00;;;12.40;55.20;;;;;;2102045;67;20226;-72
2021/12/20 13:49:29;;;;;;;4.70;1.70;;;11.80;56.80;;;;;;2109215;67;20244;-71
2021/12/20 13:52:12;;;;;;;6.40;1.23;;;11.30;57.00;;;;;;2120251;67;20333;-72
2021/12/20 13:54:56;;;;;;;2.63;0.80;;;10.90;57.90;;;;;;2126352;67;20386;-71
2021/12/20 13:57:39;;;;;;;3.97;0.90;;;10.50;58.10;;;;;;2117984;67;20333;-69
2021/12/20 14:00:22;;;;;;;4.55;1.20;;;10.10;57.90;;;;;;2102583;68;20280;-71
2021/12/20 14:03:15;;;;;;;5.68;1.77;;;9.80;58.20;;;;;;2121198;67;20792;-70
2021/12/20 14:06:02;;;;;;;4.83;1.13;;;9.50;58.50;;;;;;2117672;67;20193;-71
2021/12/20 14:09:04;;;;;;;9.98;1.42;;;9.20;58.90;;;;;;2110039;67;20346;-69
2021/12/20 14:12:05;;;;;;;9.18;1.80;;;9.00;59.40;;;;;;2116350;67;20280;-70
2021/12/20 14:15:23;;;;;;;4.80;1.20;;;8.60;60.80;;;;;;2105027;67;20318;-70
2021/12/20 14:18:11;;;;;;;1.98;0.88;;;8.30;62.20;;;;;;2103934;67;20299;-72
2021/12/20 14:20:58;;;;;;;6.30;1.45;;;7.90;61.90;;;;;;2111092;67;20398;-70
2021/12/20 14:23:52;;;;;;;3.22;1.05;;;8.00;62.50;;;;;;2113242;67;20327;-70
2021/12/20 14:26:39;;;;;;;1.95;0.93;;;8.10;62.80;;;;;;2098160;68;20782;-71
2021/12/20 14:29:31;;;;;;;3.42;1.60;;;7.70;63.00;;;;;;2107685;67;20237;-71
2021/12/20 14:32:19;;;;;;;8.50;1.58;;;7.70;63.40;;;;;;2111020;67;20648;-72
2021/12/20 14:35:23;;;;;;;3.45;1.55;;;7.40;64.10;;;;;;2109422;67;20193;-72
2021/12/20 14:38:26;;;;;;;6.10;1.90;;;7.20;66.00;;;;;;2116612;67;20193;-70
2021/12/20 14:41:36;;;;;;;7.95;2.50;;;7.10;68.10;;;;;;2105300;67;20195;-72
2021/12/20 14:44:27;;;;;;;5.80;2.30;;;7.00;69.70;;;;;;2112383;67;20719;-70